Time;durP1;ratioP1;P1;durP2;ratioP2;P2;SDS_P1;SDS_P2;PMS_P1;PMS_P2;Temp;Humidity;BMP_temperature;BMP_pressure;BME280_temperature;BME280_humidity;BME280_pressure;Samples;Min_cycle;Max_cycle;Signal;HPM_P1;HPM_P2
2024/02/28 00:00:04;;;;;;;25.08;11.57;;;5.10;99.90;;;;;;8455799;28;20047;-76
2024/02/28 00:04:06;;;;;;;25.52;11.52;;;5.10;99.90;;;;;;8451879;28;20084;-76
2024/02/28 00:08:08;;;;;;;26.08;11.93;;;5.10;99.90;;;;;;8455428;28;20047;-75
2024/02/28 00:12:10;;;;;;;26.73;12.40;;;5.10;99.90;;;;;;8455495;28;20055;-76
2024/02/28 00:21:34;;;;;;;24.05;11.13;;;4.90;99.90;;;;;;8460653;28;20050;-76
2024/02/28 00:25:36;;;;;;;25.48;11.40;;;4.80;99.90;;;;;;8459947;27;20546;-76
2024/02/28 00:29:38;;;;;;;28.27;11.68;;;4.70;99.90;;;;;;8460789;28;21543;-76
2024/02/28 00:33:40;;;;;;;24.40;11.13;;;4.60;99.90;;;;;;8461823;27;20051;-76
2024/02/28 00:37:42;;;;;;;24.35;11.27;;;4.60;99.90;;;;;;8460681;28;20665;-76
2024/02/28 00:41:43;;;;;;;22.67;10.55;;;4.50;99.90;;;;;;8462286;28;20398;-76
2024/02/28 00:45:45;;;;;;;24.90;11.55;;;4.40;99.90;;;;;;8459096;27;20538;-76
2024/02/28 00:49:47;;;;;;;24.85;10.57;;;4.30;99.90;;;;;;8461383;28;20047;-76
2024/02/28 00:53:49;;;;;;;23.65;10.63;;;4.20;99.90;;;;;;8460790;27;20066;-76
2024/02/28 00:57:51;;;;;;;23.90;10.25;;;4.10;99.90;;;;;;8458424;28;20387;-76
2024/02/28 01:01:53;;;;;;;22.65;10.27;;;4.00;99.90;;;;;;8462856;28;20048;-76
2024/02/28 01:05:54;;;;;;;22.45;10.13;;;3.90;99.90;;;;;;8457912;28;20051;-76
2024/02/28 01:09:56;;;;;;;21.10;10.00;;;3.80;99.90;;;;;;8460969;28;20047;-76
2024/02/28 01:13:58;;;;;;;22.17;10.35;;;3.70;99.90;;;;;;8459210;27;20051;-76
2024/02/28 01:18:00;;;;;;;21.55;9.80;;;3.60;99.90;;;;;;8455657;28;20051;-75
2024/02/28 01:22:02;;;;;;;20.58;9.35;;;3.60;99.90;;;;;;8461149;28;20554;-76
2024/02/28 01:26:05;;;;;;;20.92;9.93;;;3.50;99.90;;;;;;8459088;27;20117;-75
2024/02/28 01:30:08;;;;;;;22.58;9.73;;;3.50;99.90;;;;;;8458341;28;20134;-75
2024/02/28 01:34:09;;;;;;;26.40;10.30;;;3.40;99.90;;;;;;8459928;27;20380;-76
2024/02/28 01:38:11;;;;;;;23.30;10.88;;;3.30;99.90;;;;;;8457198;28;20084;-76
2024/02/28 01:42:14;;;;;;;25.48;10.10;;;3.20;99.90;;;;;;8460212;28;20050;-76
2024/02/28 01:46:26;;;;;;;22.58;9.55;;;3.10;99.90;;;;;;8457701;27;20082;-76
2024/02/28 01:50:28;;;;;;;22.00;9.40;;;3.00;99.90;;;;;;8459874;27;20554;-76
2024/02/28 01:54:32;;;;;;;24.20;9.98;;;2.90;99.90;;;;;;8458392;28;20043;-76
2024/02/28 01:58:34;;;;;;;23.38;10.25;;;2.90;99.90;;;;;;8456736;28;20127;-76
2024/02/28 02:02:36;;;;;;;27.77;10.73;;;2.90;99.90;;;;;;8458544;28;20051;-76
2024/02/28 02:07:03;;;;;;;28.42;10.73;;;2.90;99.90;;;;;;8456604;27;20104;-76
2024/02/28 02:11:08;;;;;;;32.40;9.97;;;2.90;99.90;;;;;;8457454;28;20047;-76
2024/02/28 02:15:10;;;;;;;34.22;10.70;;;2.90;99.90;;;;;;8454365;28;20126;-76
2024/02/28 02:19:13;;;;;;;31.13;10.50;;;2.80;99.90;;;;;;8455656;28;20087;-76
2024/02/28 02:23:15;;;;;;;27.05;10.68;;;2.70;99.90;;;;;;8457979;28;20143;-76
2024/02/28 02:27:17;;;;;;;34.88;11.10;;;2.80;99.90;;;;;;8452950;27;20475;-76
2024/02/28 02:31:19;;;;;;;31.55;10.45;;;2.70;99.90;;;;;;8456092;28;20486;-76
2024/02/28 02:35:21;;;;;;;35.08;10.65;;;2.70;99.90;;;;;;8458126;28;20046;-76
2024/02/28 02:39:22;;;;;;;21.38;9.18;;;2.70;99.90;;;;;;8452449;27;20090;-76
2024/02/28 02:43:24;;;;;;;23.92;9.45;;;2.60;99.90;;;;;;8459163;28;20522;-76
2024/02/28 02:47:26;;;;;;;21.25;9.80;;;2.60;99.90;;;;;;8457631;27;20043;-76
2024/02/28 02:51:28;;;;;;;19.05;8.77;;;2.60;99.90;;;;;;8455309;28;20127;-76
2024/02/28 02:56:04;;;;;;;20.85;8.63;;;2.50;99.90;;;;;;8458528;27;20126;-76
2024/02/28 03:00:09;;;;;;;16.50;8.05;;;2.40;99.90;;;;;;8450080;28;20043;-76
2024/02/28 03:04:11;;;;;;;17.73;8.25;;;2.40;99.90;;;;;;8458341;28;20547;-76
2024/02/28 03:08:12;;;;;;;17.90;8.75;;;2.40;99.90;;;;;;8454752;28;20100;-76
2024/02/28 03:12:14;;;;;;;16.60;7.93;;;2.40;99.90;;;;;;8456991;28;20043;-76
2024/02/28 03:16:16;;;;;;;14.27;7.28;;;2.30;99.90;;;;;;8447832;28;20054;-76
2024/02/28 03:20:18;;;;;;;15.18;7.85;;;2.30;99.90;;;;;;8451371;28;20035;-76
2024/02/28 03:24:20;;;;;;;12.98;6.80;;;2.30;99.90;;;;;;8457788;28;20048;-76
2024/02/28 03:28:21;;;;;;;15.32;7.78;;;2.20;99.90;;;;;;8456036;28;20039;-76
2024/02/28 03:32:23;;;;;;;17.15;7.60;;;2.10;99.90;;;;;;8455660;27;20097;-76
2024/02/28 03:36:25;;;;;;;14.57;6.35;;;2.10;99.90;;;;;;8454468;28;20474;-76
2024/02/28 03:40:27;;;;;;;13.80;7.32;;;2.20;99.90;;;;;;8454013;28;20516;-76
2024/02/28 03:44:29;;;;;;;13.40;7.15;;;2.20;99.90;;;;;;8455935;28;20055;-76
2024/02/28 03:48:30;;;;;;;15.07;7.22;;;2.30;99.90;;;;;;8456755;28;20051;-76
2024/02/28 03:52:32;;;;;;;12.65;7.05;;;2.40;99.90;;;;;;8456015;27;20047;-76
2024/02/28 03:56:35;;;;;;;13.25;6.82;;;2.50;99.90;;;;;;8455247;28;20300;-76
2024/02/28 04:00:37;;;;;;;15.23;7.53;;;2.50;99.90;;;;;;8453929;27;20051;-76
2024/02/28 04:04:39;;;;;;;13.30;6.85;;;2.50;99.90;;;;;;8478557;27;20048;-76
2024/02/28 04:08:41;;;;;;;12.95;6.90;;;2.60;99.90;;;;;;8456167;28;20143;-76
2024/02/28 04:12:46;;;;;;;14.07;7.28;;;2.60;99.90;;;;;;8454941;28;20043;-76
2024/02/28 04:22:10;;;;;;;13.27;7.00;;;2.70;99.90;;;;;;8449731;28;20138;-76
2024/02/28 04:26:12;;;;;;;13.20;7.28;;;2.80;99.90;;;;;;8454917;28;20050;-76
2024/02/28 04:30:14;;;;;;;12.48;6.75;;;2.80;99.90;;;;;;8454994;28;20047;-76
2024/02/28 04:34:16;;;;;;;13.32;6.97;;;2.90;99.90;;;;;;8452585;28;20449;-76
2024/02/28 04:38:18;;;;;;;13.73;7.35;;;2.90;99.90;;;;;;8455633;28;20043;-76
2024/02/28 04:42:20;;;;;;;14.93;7.45;;;2.90;99.90;;;;;;8450626;28;20409;-76
2024/02/28 04:46:22;;;;;;;16.77;7.55;;;2.90;99.90;;;;;;8455818;28;20444;-76
2024/02/28 04:50:33;;;;;;;14.13;7.30;;;3.00;99.90;;;;;;8455160;28;20054;-76
2024/02/28 04:54:34;;;;;;;14.55;7.38;;;3.00;99.90;;;;;;8451725;28;20048;-77
2024/02/28 04:58:37;;;;;;;16.60;7.80;;;3.00;99.90;;;;;;8454461;28;20411;-76
2024/02/28 05:02:40;;;;;;;14.35;7.50;;;3.10;99.90;;;;;;8451167;28;20070;-76
2024/02/28 05:06:42;;;;;;;12.75;6.78;;;3.10;99.90;;;;;;8460665;28;20490;-76
2024/02/28 05:10:44;;;;;;;13.70;7.85;;;3.10;99.90;;;;;;8461158;28;20098;-76
2024/02/28 05:14:45;;;;;;;13.75;6.97;;;3.20;99.90;;;;;;8454626;27;20039;-76
2024/02/28 05:18:47;;;;;;;15.32;8.45;;;3.20;99.90;;;;;;8458288;28;20047;-76
2024/02/28 05:22:49;;;;;;;15.27;8.07;;;3.20;99.90;;;;;;8458305;27;20048;-76
2024/02/28 05:26:51;;;;;;;15.20;7.82;;;3.20;99.90;;;;;;8460436;28;20398;-76
2024/02/28 05:30:53;;;;;;;17.05;8.18;;;3.30;99.90;;;;;;8459499;28;20089;-76
2024/02/28 05:40:17;;;;;;;14.00;7.95;;;3.40;99.90;;;;;;8459453;27;20054;-76
2024/02/28 05:44:20;;;;;;;14.00;7.63;;;3.40;99.90;;;;;;8452064;27;20048;-76
2024/02/28 05:48:21;;;;;;;15.38;7.78;;;3.50;99.90;;;;;;8459834;27;20107;-76
2024/02/28 05:52:25;;;;;;;13.30;7.35;;;3.50;99.90;;;;;;8456880;28;20419;-76
2024/02/28 05:56:26;;;;;;;14.65;8.20;;;3.50;99.90;;;;;;8460514;27;20065;-76
2024/02/28 06:00:28;;;;;;;14.52;8.20;;;3.60;99.90;;;;;;8461266;27;20047;-76
2024/02/28 06:04:30;;;;;;;14.52;8.23;;;3.60;99.90;;;;;;8458882;27;20047;-76
2024/02/28 06:08:40;;;;;;;13.52;7.63;;;3.60;99.90;;;;;;8460401;27;20478;-76
2024/02/28 06:12:42;;;;;;;15.85;8.00;;;3.70;99.90;;;;;;8457759;27;20062;-76
2024/02/28 06:16:47;;;;;;;16.02;8.98;;;3.70;99.90;;;;;;8450672;27;20050;-76
2024/02/28 06:20:49;;;;;;;17.88;8.23;;;3.80;99.90;;;;;;8479359;27;20039;-76
2024/02/28 06:24:51;;;;;;;13.07;7.80;;;3.80;99.90;;;;;;8452926;28;20522;-76
2024/02/28 06:28:53;;;;;;;13.25;8.18;;;3.80;99.90;;;;;;8458363;28;20126;-76
2024/02/28 06:32:54;;;;;;;15.45;8.68;;;3.90;99.90;;;;;;8454695;28;20409;-76
2024/02/28 06:36:56;;;;;;;17.73;9.15;;;3.90;99.90;;;;;;8458667;28;20047;-76
2024/02/28 06:40:58;;;;;;;14.45;8.68;;;3.90;99.90;;;;;;8459563;28;20053;-76
2024/02/28 06:45:00;;;;;;;16.45;8.82;;;3.90;99.90;;;;;;8455864;27;20050;-76
2024/02/28 06:49:02;;;;;;;14.95;8.60;;;4.00;99.90;;;;;;8456715;28;20036;-76
2024/02/28 06:53:29;;;;;;;14.45;8.38;;;4.00;99.90;;;;;;8457059;27;20039;-76
2024/02/28 06:57:46;;;;;;;13.85;8.40;;;4.00;99.90;;;;;;8457350;28;20047;-76
2024/02/28 07:12:32;;;;;;;14.80;8.75;;;4.20;99.90;;;;;;8457861;28;20070;-76
2024/02/28 07:16:34;;;;;;;16.35;8.85;;;4.20;99.90;;;;;;8451280;27;20477;-77
2024/02/28 07:20:36;;;;;;;14.55;8.88;;;4.30;99.90;;;;;;8459021;27;20146;-76
2024/02/28 07:24:38;;;;;;;15.45;9.30;;;4.30;99.90;;;;;;8457172;28;20483;-77
2024/02/28 07:28:40;;;;;;;16.08;9.18;;;4.30;99.90;;;;;;8457012;28;20071;-76
2024/02/28 07:32:42;;;;;;;17.83;9.98;;;4.40;99.90;;;;;;8455810;28;20410;-76
2024/02/28 07:36:43;;;;;;;16.70;9.63;;;4.40;99.90;;;;;;8454625;28;20047;-76
2024/02/28 07:40:46;;;;;;;15.13;9.20;;;4.50;99.90;;;;;;8457437;28;20054;-76
2024/02/28 07:44:49;;;;;;;16.55;10.38;;;4.60;99.90;;;;;;8456126;28;20048;-76
2024/02/28 07:48:51;;;;;;;17.60;10.00;;;4.60;99.90;;;;;;8452979;28;20040;-77
2024/02/28 07:52:56;;;;;;;17.80;9.52;;;4.60;99.90;;;;;;8457661;28;20039;-76
2024/02/28 07:56:57;;;;;;;18.13;10.85;;;4.60;99.90;;;;;;8454119;28;20513;-77
2024/02/28 08:06:22;;;;;;;14.50;9.07;;;4.80;99.90;;;;;;8450554;28;20038;-76
2024/02/28 08:10:24;;;;;;;15.60;10.27;;;4.80;99.90;;;;;;8453075;28;20502;-76
2024/02/28 08:14:27;;;;;;;19.20;11.10;;;4.80;99.90;;;;;;8449742;28;20101;-76
2024/02/28 08:18:29;;;;;;;19.45;10.02;;;4.90;99.90;;;;;;8453328;28;20039;-76
2024/02/28 08:22:31;;;;;;;18.65;11.00;;;4.90;99.90;;;;;;8454696;28;20086;-76
2024/02/28 08:26:34;;;;;;;17.35;11.93;;;4.90;99.90;;;;;;8454067;28;20265;-76
2024/02/28 08:30:35;;;;;;;16.27;11.18;;;4.90;99.90;;;;;;8453609;28;20544;-76
2024/02/28 08:34:37;;;;;;;19.55;11.52;;;4.90;99.90;;;;;;8454433;28;20137;-76
2024/02/28 08:38:39;;;;;;;17.52;10.93;;;4.90;99.90;;;;;;8454038;28;20104;-77
2024/02/28 08:42:41;;;;;;;18.80;13.10;;;5.00;99.90;;;;;;8460401;27;20043;-76
2024/02/28 08:46:43;;;;;;;20.27;12.18;;;5.00;99.90;;;;;;8458694;28;20157;-76
2024/02/28 08:50:45;;;;;;;18.25;12.50;;;5.10;99.90;;;;;;8458211;28;20043;-76
2024/02/28 08:54:48;;;;;;;18.63;12.55;;;5.10;99.90;;;;;;8461649;28;20044;-76
2024/02/28 08:58:50;;;;;;;21.35;13.82;;;5.20;99.90;;;;;;8458135;28;20479;-76
2024/02/28 09:02:52;;;;;;;17.90;12.52;;;5.20;99.90;;;;;;8460852;27;20074;-77
2024/02/28 09:06:54;;;;;;;22.10;13.18;;;5.30;99.90;;;;;;8462524;27;20039;-76
2024/02/28 09:10:56;;;;;;;22.98;14.95;;;5.30;99.90;;;;;;8459579;28;20096;-76
2024/02/28 09:14:58;;;;;;;25.50;13.88;;;5.40;99.90;;;;;;8459470;27;20044;-76
2024/02/28 09:19:00;;;;;;;22.75;14.65;;;5.50;99.90;;;;;;8458262;28;20043;-76
2024/02/28 09:23:02;;;;;;;20.05;13.48;;;5.60;99.90;;;;;;8461371;28;20036;-76
2024/02/28 09:27:05;;;;;;;21.95;15.00;;;5.70;99.90;;;;;;8459181;28;20043;-76
2024/02/28 09:31:07;;;;;;;24.90;14.48;;;5.90;99.90;;;;;;8456796;28;20043;-76
2024/02/28 09:35:10;;;;;;;21.30;14.25;;;5.90;99.90;;;;;;8460006;28;20479;-76
2024/02/28 09:39:12;;;;;;;22.05;13.85;;;6.00;99.90;;;;;;8460954;27;20044;-77
2024/02/28 09:43:29;;;;;;;23.00;14.85;;;6.10;99.90;;;;;;8459450;27;20109;-76
2024/02/28 09:47:31;;;;;;;19.48;12.00;;;6.20;99.90;;;;;;8461325;27;20051;-77
2024/02/28 09:51:37;;;;;;;21.67;14.10;;;6.40;99.90;;;;;;8456727;28;20066;-76
2024/02/28 09:55:38;;;;;;;24.98;15.35;;;6.70;99.90;;;;;;8458502;28;20054;-76
2024/02/28 09:59:42;;;;;;;21.70;14.23;;;7.10;99.90;;;;;;8460605;27;20414;-77
2024/02/28 10:03:59;;;;;;;23.60;14.25;;;7.30;99.90;;;;;;8456856;28;20062;-77
2024/02/28 10:08:01;;;;;;;20.90;13.05;;;7.40;99.90;;;;;;8459524;28;20046;-77
2024/02/28 10:12:03;;;;;;;24.27;14.40;;;7.40;99.90;;;;;;8457876;28;20047;-76
2024/02/28 10:16:07;;;;;;;21.02;13.85;;;7.30;99.90;;;;;;8450978;28;20043;-76
2024/02/28 10:20:09;;;;;;;20.90;13.00;;;7.30;99.90;;;;;;8457928;28;20058;-77
2024/02/28 10:24:15;;;;;;;20.38;13.85;;;7.30;99.90;;;;;;8456171;28;20051;-77
2024/02/28 10:28:17;;;;;;;22.63;15.27;;;7.10;99.90;;;;;;8459079;28;20031;-76
2024/02/28 10:32:19;;;;;;;22.60;15.45;;;7.10;99.90;;;;;;8459358;28;20050;-76
2024/02/28 10:36:20;;;;;;;24.35;15.82;;;7.20;99.90;;;;;;8456402;28;20050;-76
2024/02/28 10:40:28;;;;;;;24.60;16.23;;;7.40;99.90;;;;;;8460452;27;20085;-76
2024/02/28 10:44:31;;;;;;;;;;;7.50;99.90;;;;;;8456171;28;20558;-77
2024/02/28 10:48:33;;;;;;;25.20;15.50;;;7.70;99.90;;;;;;8461231;28;19919;-76
2024/02/28 10:52:42;;;;;;;21.92;14.02;;;7.80;99.90;;;;;;8457337;28;20043;-76
2024/02/28 10:56:45;;;;;;;26.80;17.17;;;8.00;99.90;;;;;;8454624;27;20760;-76
2024/02/28 11:01:06;;;;;;;25.13;15.07;;;8.30;99.90;;;;;;8455858;27;20039;-76
2024/02/28 11:05:08;;;;;;;27.08;16.20;;;8.50;99.90;;;;;;8457407;28;20071;-77
2024/02/28 11:09:11;;;;;;;28.67;16.65;;;8.80;99.90;;;;;;8455728;28;20043;-76
2024/02/28 11:13:24;;;;;;;25.27;15.98;;;8.90;99.90;;;;;;8455862;28;20047;-77
2024/02/28 11:17:29;;;;;;;23.52;15.15;;;9.10;99.90;;;;;;8449413;28;20047;-77
2024/02/28 11:21:34;;;;;;;23.42;15.15;;;9.20;99.90;;;;;;8455694;28;20047;-77
2024/02/28 11:25:36;;;;;;;24.48;15.68;;;9.20;99.90;;;;;;8457176;27;20447;-76
2024/02/28 11:29:39;;;;;;;24.13;14.57;;;9.40;99.90;;;;;;8455387;27;20051;-77
2024/02/28 11:33:41;;;;;;;18.63;12.25;;;9.60;99.90;;;;;;8456898;28;20518;-77
2024/02/28 11:37:49;;;;;;;27.40;15.82;;;9.80;99.90;;;;;;8455753;28;20241;-78
2024/02/28 11:41:50;;;;;;;26.65;15.35;;;9.70;99.90;;;;;;8472549;27;20040;-77
2024/02/28 11:45:55;;;;;;;24.55;14.73;;;9.60;99.90;;;;;;8456614;27;20044;-77
2024/02/28 11:56:03;;;;;;;23.45;13.40;;;9.30;99.90;;;;;;8455604;28;20051;-76
2024/02/28 12:00:09;;;;;;;26.45;14.55;;;9.20;99.90;;;;;;8453698;28;20035;-77
2024/02/28 12:04:11;;;;;;;23.92;13.90;;;9.30;99.90;;;;;;8456188;28;20036;-77
2024/02/28 12:08:13;;;;;;;26.10;13.70;;;9.30;99.90;;;;;;8454412;28;20536;-76
2024/02/28 12:12:16;;;;;;;25.95;14.95;;;9.40;99.90;;;;;;8449884;28;20047;-76
2024/02/28 12:16:21;;;;;;;24.92;14.05;;;9.50;99.90;;;;;;8449944;28;20043;-77
2024/02/28 12:20:23;;;;;;;24.98;14.65;;;9.60;99.90;;;;;;8432386;28;20059;-77
2024/02/28 12:24:25;;;;;;;24.15;14.25;;;9.80;99.90;;;;;;8433884;28;20050;-77
2024/02/28 12:28:28;;;;;;;22.45;13.48;;;9.80;99.90;;;;;;8432377;28;20501;-77
2024/02/28 12:32:30;;;;;;;25.75;15.15;;;9.80;99.90;;;;;;8428289;28;20050;-77
2024/02/28 12:36:32;;;;;;;23.13;14.38;;;9.70;99.90;;;;;;8429521;28;20047;-76
2024/02/28 12:40:35;;;;;;;22.52;13.15;;;9.60;99.90;;;;;;8428201;27;20082;-76
2024/02/28 12:44:38;;;;;;;25.98;14.05;;;9.60;99.90;;;;;;8428172;28;20056;-76
2024/02/28 12:48:43;;;;;;;20.52;12.13;;;9.60;99.90;;;;;;8426360;28;20043;-77
2024/02/28 12:52:48;;;;;;;22.77;12.52;;;9.50;99.90;;;;;;8428530;28;20055;-76
2024/02/28 12:56:50;;;;;;;18.52;11.25;;;9.40;99.90;;;;;;8425539;28;20510;-76
2024/02/28 13:00:52;;;;;;;19.10;11.10;;;9.30;99.90;;;;;;8429519;28;20048;-77
2024/02/28 13:04:54;;;;;;;17.30;10.93;;;9.30;99.90;;;;;;8433939;28;20138;-77
2024/02/28 13:08:56;;;;;;;19.05;11.48;;;9.30;99.90;;;;;;8436550;28;20040;-77
2024/02/28 13:12:58;;;;;;;18.50;11.43;;;9.30;99.90;;;;;;8427962;28;20051;-76
2024/02/28 13:16:59;;;;;;;21.95;12.18;;;9.50;99.90;;;;;;8435331;28;20460;-76
2024/02/28 13:21:05;;;;;;;17.02;10.10;;;9.60;99.90;;;;;;8431582;28;20098;-77
2024/02/28 13:25:08;;;;;;;23.27;13.70;;;9.70;99.90;;;;;;8430030;28;20120;-76
2024/02/28 13:29:10;;;;;;;20.10;13.05;;;9.70;99.90;;;;;;8446143;28;20036;-76
2024/02/28 13:33:49;;;;;;;24.20;14.20;;;9.80;99.90;;;;;;8430632;28;20051;-77
2024/02/28 13:37:53;;;;;;;22.50;13.43;;;10.00;99.90;;;;;;8442103;28;20413;-77
2024/02/28 13:41:55;;;;;;;24.40;14.60;;;10.10;99.90;;;;;;8440323;27;20051;-77
2024/02/28 13:46:00;;;;;;;22.45;14.05;;;10.10;99.90;;;;;;8439168;27;20067;-77
2024/02/28 13:50:03;;;;;;;22.27;13.32;;;10.10;99.90;;;;;;8462855;27;20044;-76
2024/02/28 13:54:05;;;;;;;26.00;13.65;;;10.00;99.90;;;;;;8432411;27;20036;-76
2024/02/28 13:58:08;;;;;;;22.52;13.57;;;9.80;99.90;;;;;;8435795;28;20071;-77
2024/02/28 14:02:11;;;;;;;21.25;11.68;;;9.80;99.90;;;;;;8427020;27;20075;-77
2024/02/28 14:06:13;;;;;;;18.60;11.57;;;9.80;99.90;;;;;;8434929;28;20036;-77
2024/02/28 14:10:15;;;;;;;16.55;10.35;;;9.70;99.90;;;;;;8433950;28;20040;-76
2024/02/28 14:14:17;;;;;;;19.85;11.77;;;9.70;99.90;;;;;;8438991;28;20048;-76
2024/02/28 14:18:19;;;;;;;16.80;10.55;;;9.60;99.90;;;;;;8432228;28;20078;-76
2024/02/28 14:22:21;;;;;;;19.30;11.07;;;9.60;99.90;;;;;;8432977;27;20046;-76
2024/02/28 14:26:24;;;;;;;22.33;12.45;;;9.60;99.90;;;;;;8432684;28;20101;-76
2024/02/28 14:30:26;;;;;;;18.05;10.80;;;9.60;99.90;;;;;;8435557;28;20071;-77
2024/02/28 14:34:31;;;;;;;19.88;11.50;;;9.60;99.90;;;;;;8428529;28;20101;-76
2024/02/28 14:38:33;;;;;;;21.40;12.88;;;9.60;99.90;;;;;;8430961;28;20080;-76
2024/02/28 14:42:35;;;;;;;22.42;12.18;;;9.50;99.90;;;;;;8428816;27;20474;-78
2024/02/28 14:47:02;;;;;;;19.08;11.60;;;9.50;99.90;;;;;;8425945;27;20063;-76
2024/02/28 14:51:41;;;;;;;20.05;11.52;;;9.50;99.90;;;;;;8429669;28;20055;-76
2024/02/28 14:55:47;;;;;;;20.65;11.30;;;9.50;99.90;;;;;;8438308;28;20410;-76
2024/02/28 14:59:48;;;;;;;20.48;11.48;;;9.40;99.90;;;;;;8428439;28;20052;-76
2024/02/28 15:03:51;;;;;;;20.65;11.63;;;9.40;99.90;;;;;;8433258;28;20092;-76
2024/02/28 15:07:54;;;;;;;21.25;12.18;;;9.30;99.90;;;;;;8427166;28;20071;-76
2024/02/28 15:11:57;;;;;;;19.58;11.68;;;9.30;99.90;;;;;;8434761;27;20050;-76
2024/02/28 15:15:59;;;;;;;20.23;11.80;;;9.30;99.90;;;;;;8431258;28;20051;-76
2024/02/28 15:20:03;;;;;;;18.33;11.32;;;9.20;99.90;;;;;;8458844;27;20403;-76
2024/02/28 15:24:05;;;;;;;22.88;12.05;;;9.30;99.90;;;;;;8430874;27;20058;-76
2024/02/28 15:28:06;;;;;;;22.23;11.75;;;9.20;99.90;;;;;;8432935;28;20036;-76
2024/02/28 15:32:09;;;;;;;18.27;10.82;;;9.20;99.90;;;;;;8433475;28;20054;-76
2024/02/28 15:36:10;;;;;;;20.30;11.00;;;9.20;99.90;;;;;;8459995;27;20402;-76
2024/02/28 15:40:12;;;;;;;19.42;11.23;;;9.20;99.90;;;;;;8430461;28;20082;-76
2024/02/28 15:44:14;;;;;;;20.42;11.18;;;9.10;99.90;;;;;;8426142;28;20048;-76
2024/02/28 15:48:17;;;;;;;20.75;10.73;;;9.10;99.90;;;;;;8424161;28;20454;-76
2024/02/28 15:52:18;;;;;;;21.52;11.10;;;9.10;99.90;;;;;;8427827;28;20709;-76
2024/02/28 15:56:21;;;;;;;19.50;9.85;;;9.10;99.90;;;;;;8434335;28;20105;-77
2024/02/28 16:00:22;;;;;;;18.90;11.05;;;9.10;99.90;;;;;;8429741;28;20044;-76
2024/02/28 16:04:24;;;;;;;19.02;10.52;;;9.10;99.90;;;;;;8425931;28;20146;-76
2024/02/28 16:08:26;;;;;;;20.55;11.20;;;9.10;99.90;;;;;;8432469;28;20043;-76
2024/02/28 16:12:28;;;;;;;18.58;10.00;;;9.00;99.90;;;;;;8430039;28;20308;-76
2024/02/28 16:16:30;;;;;;;17.58;9.63;;;9.00;99.90;;;;;;8432651;28;20056;-76
2024/02/28 16:20:31;;;;;;;18.17;10.25;;;8.90;99.90;;;;;;8437108;28;20055;-77
2024/02/28 16:24:39;;;;;;;20.75;10.32;;;8.80;99.90;;;;;;8432652;28;20047;-77
2024/02/28 16:28:41;;;;;;;17.77;10.32;;;8.70;99.90;;;;;;8427468;28;20051;-76
2024/02/28 16:32:44;;;;;;;18.48;10.20;;;8.70;99.90;;;;;;8429093;28;20060;-76
2024/02/28 16:36:46;;;;;;;18.20;10.05;;;8.70;99.90;;;;;;8437065;28;20055;-77
2024/02/28 16:40:48;;;;;;;19.67;10.25;;;8.70;99.90;;;;;;8427187;28;20055;-76
2024/02/28 16:44:50;;;;;;;20.20;9.98;;;8.70;99.90;;;;;;8436604;28;20062;-76
2024/02/28 16:48:52;;;;;;;14.60;9.00;;;8.70;99.90;;;;;;8427865;28;20044;-76
2024/02/28 16:52:54;;;;;;;15.63;9.00;;;8.70;99.90;;;;;;8427411;28;22001;-76
2024/02/28 16:56:56;;;;;;;19.73;10.52;;;8.80;99.90;;;;;;8429010;28;20055;-76
2024/02/28 17:00:58;;;;;;;16.33;9.25;;;8.80;99.90;;;;;;8436284;28;20101;-76
2024/02/28 17:05:00;;;;;;;14.57;8.88;;;8.80;99.90;;;;;;8435909;28;20036;-76
2024/02/28 17:09:02;;;;;;;14.93;8.57;;;8.80;99.90;;;;;;8441867;28;20488;-76
2024/02/28 17:13:04;;;;;;;17.15;9.13;;;8.80;99.90;;;;;;8434938;28;20277;-76
2024/02/28 17:17:06;;;;;;;16.98;9.43;;;8.80;99.90;;;;;;8433982;27;20079;-76
2024/02/28 17:21:08;;;;;;;15.43;8.30;;;8.70;99.90;;;;;;8432299;28;20065;-76
2024/02/28 17:25:10;;;;;;;15.30;8.88;;;8.70;99.90;;;;;;8434381;28;20544;-76
2024/02/28 17:29:12;;;;;;;14.98;8.73;;;8.70;99.90;;;;;;8434253;28;20056;-76
2024/02/28 17:38:36;;;;;;;15.50;8.32;;;8.70;99.90;;;;;;8430737;27;20035;-76
2024/02/28 17:42:38;;;;;;;15.75;9.55;;;8.70;99.90;;;;;;8433377;28;20475;-76
2024/02/28 17:47:13;;;;;;;16.13;8.90;;;8.70;99.90;;;;;;8431247;28;20056;-76
2024/02/28 17:51:19;;;;;;;13.88;7.95;;;8.70;99.90;;;;;;8456517;27;20143;-76
2024/02/28 17:55:21;;;;;;;15.40;8.75;;;8.70;99.90;;;;;;8432190;28;20070;-76
2024/02/28 17:59:22;;;;;;;15.85;9.00;;;8.60;99.90;;;;;;8429084;28;20497;-76
2024/02/28 18:03:24;;;;;;;14.30;9.02;;;8.70;99.90;;;;;;8431309;28;20065;-76
2024/02/28 18:07:26;;;;;;;12.82;7.53;;;8.70;99.90;;;;;;8434107;28;20074;-76
2024/02/28 18:11:28;;;;;;;17.25;10.32;;;8.60;99.90;;;;;;8429531;28;20048;-76
2024/02/28 18:15:30;;;;;;;14.25;8.32;;;8.60;99.90;;;;;;8447081;28;20117;-77
2024/02/28 18:19:32;;;;;;;17.13;9.85;;;8.60;99.90;;;;;;8432810;28;20177;-76
2024/02/28 18:23:34;;;;;;;18.63;11.43;;;8.60;99.90;;;;;;8427382;28;20593;-76
2024/02/28 18:27:36;;;;;;;16.33;9.98;;;8.50;99.90;;;;;;8434095;28;20043;-76
2024/02/28 18:31:38;;;;;;;16.33;9.50;;;8.50;99.90;;;;;;8440732;27;20051;-76
2024/02/28 18:35:41;;;;;;;14.45;9.00;;;8.50;99.90;;;;;;8429869;27;20060;-76
2024/02/28 18:39:43;;;;;;;17.77;10.25;;;8.50;99.90;;;;;;8436661;28;20190;-76
2024/02/28 18:43:45;;;;;;;15.52;9.63;;;8.50;99.90;;;;;;8433947;28;20039;-76
2024/02/28 18:48:12;;;;;;;17.63;8.77;;;8.50;99.90;;;;;;8428951;27;20044;-76
2024/02/28 18:57:36;;;;;;;19.33;10.43;;;8.40;99.90;;;;;;8438477;27;20168;-76
2024/02/28 19:01:38;;;;;;;14.73;8.73;;;8.50;99.90;;;;;;8435374;28;20066;-76
2024/02/28 19:05:40;;;;;;;14.02;7.50;;;8.50;99.90;;;;;;8444287;27;20058;-76
2024/02/28 19:09:42;;;;;;;14.63;8.23;;;8.50;99.90;;;;;;8433056;28;20043;-76
2024/02/28 19:13:44;;;;;;;13.25;8.15;;;8.50;99.90;;;;;;8429209;28;20039;-76
2024/02/28 19:17:46;;;;;;;14.05;8.82;;;8.50;99.90;;;;;;8428627;28;20053;-76
2024/02/28 19:21:49;;;;;;;15.18;8.82;;;8.50;99.90;;;;;;8433072;28;20051;-76
2024/02/28 19:25:51;;;;;;;13.35;8.88;;;8.50;99.90;;;;;;8430614;28;20044;-76
2024/02/28 19:29:53;;;;;;;11.80;7.53;;;8.50;99.90;;;;;;8429976;28;20043;-76
2024/02/28 19:33:55;;;;;;;11.48;7.72;;;8.50;99.90;;;;;;8442445;28;20055;-76
2024/02/28 19:37:57;;;;;;;10.52;6.50;;;8.50;99.90;;;;;;8436139;28;20085;-76
2024/02/28 19:41:59;;;;;;;12.80;7.38;;;8.50;99.90;;;;;;8432118;28;20050;-76
2024/02/28 19:46:02;;;;;;;12.45;8.02;;;8.40;99.90;;;;;;8437426;28;20840;-77
2024/02/28 19:50:05;;;;;;;10.18;7.25;;;8.40;99.90;;;;;;8433551;28;20047;-76
2024/02/28 19:54:07;;;;;;;10.98;7.53;;;8.40;99.90;;;;;;8427755;28;20130;-76
2024/02/28 19:58:09;;;;;;;11.30;7.03;;;8.40;99.90;;;;;;8431839;28;20056;-76
2024/02/28 20:02:11;;;;;;;12.60;6.85;;;8.30;99.90;;;;;;8428072;28;20139;-76
2024/02/28 20:06:13;;;;;;;11.80;7.45;;;8.20;99.90;;;;;;8430068;28;20437;-76
2024/02/28 20:10:16;;;;;;;14.07;7.90;;;8.20;99.90;;;;;;8427587;28;20047;-76
2024/02/28 20:14:18;;;;;;;10.65;6.75;;;8.10;99.90;;;;;;8431730;28;20048;-76
2024/02/28 20:18:24;;;;;;;10.77;7.22;;;8.10;99.90;;;;;;8425086;28;20567;-76
2024/02/28 20:22:26;;;;;;;9.93;6.30;;;8.00;99.90;;;;;;8433271;28;20044;-76
2024/02/28 20:26:28;;;;;;;11.50;7.18;;;8.00;99.90;;;;;;8422314;28;20036;-76
2024/02/28 20:30:30;;;;;;;12.65;7.35;;;7.90;99.90;;;;;;8426695;28;20051;-76
2024/02/28 20:34:32;;;;;;;11.70;7.07;;;7.90;99.90;;;;;;8427739;28;20052;-76
2024/02/28 20:38:37;;;;;;;11.18;7.10;;;7.80;99.90;;;;;;8441849;28;20080;-76
2024/02/28 20:42:41;;;;;;;8.93;5.65;;;7.80;99.90;;;;;;8435166;28;20147;-76
2024/02/28 20:46:43;;;;;;;11.85;6.85;;;7.70;99.90;;;;;;8435305;28;20143;-76
2024/02/28 20:50:46;;;;;;;12.27;7.40;;;7.70;99.90;;;;;;8433463;28;20047;-76
2024/02/28 20:54:48;;;;;;;11.02;6.85;;;7.70;99.90;;;;;;8442573;28;20514;-76
2024/02/28 20:58:52;;;;;;;10.52;6.18;;;7.60;99.90;;;;;;8432030;28;20483;-76
2024/02/28 21:02:54;;;;;;;11.00;6.80;;;7.60;99.90;;;;;;8435179;28;20043;-76
2024/02/28 21:06:55;;;;;;;11.32;6.88;;;7.60;99.90;;;;;;8434032;28;20052;-76
2024/02/28 21:10:57;;;;;;;9.95;5.78;;;7.50;99.90;;;;;;8433305;28;20051;-76
2024/02/28 21:15:05;;;;;;;12.98;7.82;;;7.50;99.90;;;;;;8441634;28;20159;-76
2024/02/28 21:19:07;;;;;;;10.40;6.50;;;7.40;99.90;;;;;;8430285;28;20384;-76
2024/02/28 21:23:09;;;;;;;12.15;7.07;;;7.40;99.90;;;;;;8435587;27;20122;-76
2024/02/28 21:27:11;;;;;;;9.32;6.20;;;7.40;99.90;;;;;;8431206;27;20048;-76
2024/02/28 21:31:13;;;;;;;12.50;7.30;;;7.40;99.90;;;;;;8435659;28;20047;-76
2024/02/28 21:35:15;;;;;;;13.75;7.78;;;7.40;99.90;;;;;;8430322;28;20050;-76
2024/02/28 21:39:17;;;;;;;11.38;6.68;;;7.30;99.90;;;;;;8425223;28;20124;-76
2024/02/28 21:43:19;;;;;;;12.40;6.85;;;7.30;99.90;;;;;;8439768;28;20044;-76
2024/02/28 21:47:21;;;;;;;12.10;7.18;;;7.30;99.90;;;;;;8435149;28;20123;-76